sensor_id;sensor_type;location;lat;lon;timestamp;temperature;humidity
7842;DHT22;3966;51.052;13.820;2023-03-01T00:01:28;-1.50;99.90
7842;DHT22;3966;51.052;13.820;2023-03-01T00:03:55;-1.40;99.90
7842;DHT22;3966;51.052;13.820;2023-03-01T00:06:22;-1.40;99.90
7842;DHT22;3966;51.052;13.820;2023-03-01T00:08:48;-1.40;99.90
7842;DHT22;3966;51.052;13.820;2023-03-01T00:13:47;-1.40;99.90
7842;DHT22;3966;51.052;13.820;2023-03-01T00:16:16;-1.40;99.90
7842;DHT22;3966;51.052;13.820;2023-03-01T00:18:42;-1.40;99.90
7842;DHT22;3966;51.052;13.820;2023-03-01T00:21:07;-1.40;99.90
7842;DHT22;3966;51.052;13.820;2023-03-01T00:23:35;-1.50;99.90
7842;DHT22;3966;51.052;13.820;2023-03-01T00:26:00;-1.50;99.90
7842;DHT22;3966;51.052;13.820;2023-03-01T00:28:26;-1.50;99.90
7842;DHT22;3966;51.052;13.820;2023-03-01T00:30:52;-1.50;99.90
7842;DHT22;3966;51.052;13.820;2023-03-01T00:33:18;-1.50;99.90
7842;DHT22;3966;51.052;13.820;2023-03-01T00:35:43;-1.50;99.90
7842;DHT22;3966;51.052;13.820;2023-03-01T00:38:09;-1.50;99.90
7842;DHT22;3966;51.052;13.820;2023-03-01T00:40:35;-1.50;99.90
7842;DHT22;3966;51.052;13.820;2023-03-01T00:43:02;-1.50;99.90
7842;DHT22;3966;51.052;13.820;2023-03-01T00:45:28;-1.60;99.90
7842;DHT22;3966;51.052;13.820;2023-03-01T00:47:56;-1.70;99.90
7842;DHT22;3966;51.052;13.820;2023-03-01T00:50:22;-1.70;99.90
7842;DHT22;3966;51.052;13.820;2023-03-01T00:52:52;-1.60;99.90
7842;DHT22;3966;51.052;13.820;2023-03-01T00:55:18;-1.80;99.90
7842;DHT22;3966;51.052;13.820;2023-03-01T00:57:44;-1.90;99.90
7842;DHT22;3966;51.052;13.820;2023-03-01T01:00:10;-1.80;99.90
7842;DHT22;3966;51.052;13.820;2023-03-01T01:02:37;-1.80;99.90
7842;DHT22;3966;51.052;13.820;2023-03-01T01:05:04;-1.80;99.90
7842;DHT22;3966;51.052;13.820;2023-03-01T01:07:29;-1.80;99.90
7842;DHT22;3966;51.052;13.820;2023-03-01T01:09:55;-1.80;99.90
7842;DHT22;3966;51.052;13.820;2023-03-01T01:12:21;-1.80;99.90
7842;DHT22;3966;51.052;13.820;2023-03-01T01:14:47;-1.90;99.90
7842;DHT22;3966;51.052;13.820;2023-03-01T01:17:13;-1.90;99.90
7842;DHT22;3966;51.052;13.820;2023-03-01T01:19:38;-1.90;99.90
7842;DHT22;3966;51.052;13.820;2023-03-01T01:22:04;-1.90;99.90
7842;DHT22;3966;51.052;13.820;2023-03-01T01:24:30;-1.90;99.90
7842;DHT22;3966;51.052;13.820;2023-03-01T01:26:55;-1.90;99.90
7842;DHT22;3966;51.052;13.820;2023-03-01T01:29:21;-2.00;99.90
7842;DHT22;3966;51.052;13.820;2023-03-01T01:31:47;-2.10;99.90
7842;DHT22;3966;51.052;13.820;2023-03-01T01:34:19;-2.10;99.90
7842;DHT22;3966;51.052;13.820;2023-03-01T01:36:49;-2.20;99.90
7842;DHT22;3966;51.052;13.820;2023-03-01T01:39:15;-2.20;99.90
7842;DHT22;3966;51.052;13.820;2023-03-01T01:41:41;-2.20;99.90
7842;DHT22;3966;51.052;13.820;2023-03-01T01:44:21;-2.30;99.90
7842;DHT22;3966;51.052;13.820;2023-03-01T01:49:37;-2.40;99.90
7842;DHT22;3966;51.052;13.820;2023-03-01T01:52:31;-2.40;99.90
7842;DHT22;3966;51.052;13.820;2023-03-01T01:57:40;-2.40;99.90
7842;DHT22;3966;51.052;13.820;2023-03-01T02:00:16;-2.30;99.90
7842;DHT22;3966;51.052;13.820;2023-03-01T02:02:43;-2.50;99.90
7842;DHT22;3966;51.052;13.820;2023-03-01T02:07:49;-2.50;99.90
7842;DHT22;3966;51.052;13.820;2023-03-01T02:10:15;-2.40;99.90
7842;DHT22;3966;51.052;13.820;2023-03-01T02:12:41;-2.40;99.90
7842;DHT22;3966;51.052;13.820;2023-03-01T02:15:07;-2.40;99.90
7842;DHT22;3966;51.052;13.820;2023-03-01T02:17:33;-2.40;99.90
7842;DHT22;3966;51.052;13.820;2023-03-01T02:22:33;-2.50;99.90
7842;DHT22;3966;51.052;13.820;2023-03-01T02:30:10;-2.60;99.90
7842;DHT22;3966;51.052;13.820;2023-03-01T02:32:39;-2.60;99.90
7842;DHT22;3966;51.052;13.820;2023-03-01T02:35:09;-2.50;99.90
7842;DHT22;3966;51.052;13.820;2023-03-01T02:37:36;-2.60;99.90
7842;DHT22;3966;51.052;13.820;2023-03-01T02:40:05;-2.60;99.90
7842;DHT22;3966;51.052;13.820;2023-03-01T02:42:35;-2.70;99.90
7842;DHT22;3966;51.052;13.820;2023-03-01T02:45:02;-2.70;99.90
7842;DHT22;3966;51.052;13.820;2023-03-01T02:47:28;-2.70;99.90
7842;DHT22;3966;51.052;13.820;2023-03-01T02:49:54;-2.70;99.90
7842;DHT22;3966;51.052;13.820;2023-03-01T02:55:11;-2.70;99.90
7842;DHT22;3966;51.052;13.820;2023-03-01T02:57:41;-2.80;99.90
7842;DHT22;3966;51.052;13.820;2023-03-01T03:00:14;-2.80;99.90
7842;DHT22;3966;51.052;13.820;2023-03-01T03:02:46;-2.80;99.90
7842;DHT22;3966;51.052;13.820;2023-03-01T03:05:16;-2.80;99.90
7842;DHT22;3966;51.052;13.820;2023-03-01T03:07:44;-2.70;99.90
7842;DHT22;3966;51.052;13.820;2023-03-01T03:10:20;-2.70;99.90
7842;DHT22;3966;51.052;13.820;2023-03-01T03:12:57;-2.80;99.90
7842;DHT22;3966;51.052;13.820;2023-03-01T03:15:23;-2.80;99.90
7842;DHT22;3966;51.052;13.820;2023-03-01T03:17:50;-2.80;99.90
7842;DHT22;3966;51.052;13.820;2023-03-01T03:20:19;-2.80;99.90
7842;DHT22;3966;51.052;13.820;2023-03-01T03:22:46;-2.80;99.90
7842;DHT22;3966;51.052;13.820;2023-03-01T03:25:12;-2.90;99.90
7842;DHT22;3966;51.052;13.820;2023-03-01T03:27:40;-2.80;99.90
7842;DHT22;3966;51.052;13.820;2023-03-01T03:30:07;-3.00;99.90
7842;DHT22;3966;51.052;13.820;2023-03-01T03:32:41;-3.00;99.90
7842;DHT22;3966;51.052;13.820;2023-03-01T03:35:08;-3.00;99.90
7842;DHT22;3966;51.052;13.820;2023-03-01T03:37:41;-3.00;99.90
7842;DHT22;3966;51.052;13.820;2023-03-01T03:40:26;-3.20;99.90
7842;DHT22;3966;51.052;13.820;2023-03-01T03:42:52;-3.20;99.90
7842;DHT22;3966;51.052;13.820;2023-03-01T03:45:17;-3.10;99.90
7842;DHT22;3966;51.052;13.820;2023-03-01T03:47:43;-3.10;99.90
7842;DHT22;3966;51.052;13.820;2023-03-01T03:50:11;-3.20;99.90
7842;DHT22;3966;51.052;13.820;2023-03-01T03:52:37;-3.10;99.90
7842;DHT22;3966;51.052;13.820;2023-03-01T03:55:03;-3.10;99.90
7842;DHT22;3966;51.052;13.820;2023-03-01T03:57:29;-3.10;99.90
7842;DHT22;3966;51.052;13.820;2023-03-01T03:59:54;-3.10;99.90
7842;DHT22;3966;51.052;13.820;2023-03-01T04:02:20;-3.10;99.90
7842;DHT22;3966;51.052;13.820;2023-03-01T04:04:49;-3.10;99.90
7842;DHT22;3966;51.052;13.820;2023-03-01T04:07:17;-3.20;99.90
7842;DHT22;3966;51.052;13.820;2023-03-01T04:09:43;-3.20;99.90
7842;DHT22;3966;51.052;13.820;2023-03-01T04:12:09;-3.20;99.90
7842;DHT22;3966;51.052;13.820;2023-03-01T04:14:35;-3.20;99.90
7842;DHT22;3966;51.052;13.820;2023-03-01T04:17:01;-3.20;99.90
7842;DHT22;3966;51.052;13.820;2023-03-01T04:19:31;-3.10;99.90
7842;DHT22;3966;51.052;13.820;2023-03-01T04:22:02;-3.10;99.90
7842;DHT22;3966;51.052;13.820;2023-03-01T04:24:35;-3.20;99.90
7842;DHT22;3966;51.052;13.820;2023-03-01T04:27:01;-3.30;99.90
7842;DHT22;3966;51.052;13.820;2023-03-01T04:29:27;-3.30;99.90
7842;DHT22;3966;51.052;13.820;2023-03-01T04:31:53;-3.40;99.90
7842;DHT22;3966;51.052;13.820;2023-03-01T04:34:18;-3.40;99.90
7842;DHT22;3966;51.052;13.820;2023-03-01T04:36:44;-3.40;99.90
7842;DHT22;3966;51.052;13.820;2023-03-01T04:39:10;-3.40;99.90
7842;DHT22;3966;51.052;13.820;2023-03-01T04:41:40;-3.40;99.90
7842;DHT22;3966;51.052;13.820;2023-03-01T04:44:06;-3.40;99.90
7842;DHT22;3966;51.052;13.820;2023-03-01T04:46:32;-3.40;99.90
7842;DHT22;3966;51.052;13.820;2023-03-01T04:48:58;-3.50;99.90
7842;DHT22;3966;51.052;13.820;2023-03-01T04:51:23;-3.40;99.90
7842;DHT22;3966;51.052;13.820;2023-03-01T04:53:49;-3.30;99.90
7842;DHT22;3966;51.052;13.820;2023-03-01T04:56:15;-3.30;99.90
7842;DHT22;3966;51.052;13.820;2023-03-01T04:58:44;-3.30;99.90
7842;DHT22;3966;51.052;13.820;2023-03-01T05:01:18;-3.30;99.90
7842;DHT22;3966;51.052;13.820;2023-03-01T05:03:51;-3.30;99.90
7842;DHT22;3966;51.052;13.820;2023-03-01T05:06:18;-3.30;99.90
7842;DHT22;3966;51.052;13.820;2023-03-01T05:08:44;-3.30;99.90
7842;DHT22;3966;51.052;13.820;2023-03-01T05:11:10;-3.40;99.90
7842;DHT22;3966;51.052;13.820;2023-03-01T05:13:37;-3.50;99.90
7842;DHT22;3966;51.052;13.820;2023-03-01T05:16:04;-3.40;99.90
7842;DHT22;3966;51.052;13.820;2023-03-01T05:18:32;-3.50;99.90
7842;DHT22;3966;51.052;13.820;2023-03-01T05:21:06;-3.50;99.90
7842;DHT22;3966;51.052;13.820;2023-03-01T05:23:33;-3.60;99.90
7842;DHT22;3966;51.052;13.820;2023-03-01T05:26:03;-3.50;99.90
7842;DHT22;3966;51.052;13.820;2023-03-01T05:28:30;-3.50;99.90
7842;DHT22;3966;51.052;13.820;2023-03-01T05:30:56;-3.50;99.90
7842;DHT22;3966;51.052;13.820;2023-03-01T05:33:24;-3.60;99.90
7842;DHT22;3966;51.052;13.820;2023-03-01T05:35:50;-3.50;99.90
7842;DHT22;3966;51.052;13.820;2023-03-01T05:38:17;-3.70;99.90
7842;DHT22;3966;51.052;13.820;2023-03-01T05:40:44;-3.70;99.90
7842;DHT22;3966;51.052;13.820;2023-03-01T05:43:11;-3.70;99.90
7842;DHT22;3966;51.052;13.820;2023-03-01T05:45:38;-3.70;99.90
7842;DHT22;3966;51.052;13.820;2023-03-01T05:48:05;-3.70;99.90
7842;DHT22;3966;51.052;13.820;2023-03-01T05:50:34;-3.70;99.90
7842;DHT22;3966;51.052;13.820;2023-03-01T05:53:05;-3.70;99.90
7842;DHT22;3966;51.052;13.820;2023-03-01T05:55:33;-3.80;99.90
7842;DHT22;3966;51.052;13.820;2023-03-01T05:58:00;-3.70;99.90
7842;DHT22;3966;51.052;13.820;2023-03-01T06:00:26;-3.70;99.90
7842;DHT22;3966;51.052;13.820;2023-03-01T06:02:54;-3.70;99.90
7842;DHT22;3966;51.052;13.820;2023-03-01T06:05:20;-3.80;99.90
7842;DHT22;3966;51.052;13.820;2023-03-01T06:07:45;-3.70;99.90
7842;DHT22;3966;51.052;13.820;2023-03-01T06:10:12;-3.70;99.90
7842;DHT22;3966;51.052;13.820;2023-03-01T06:12:40;-3.70;99.90
7842;DHT22;3966;51.052;13.820;2023-03-01T06:15:07;-3.60;99.90
7842;DHT22;3966;51.052;13.820;2023-03-01T06:17:36;-3.70;99.90
7842;DHT22;3966;51.052;13.820;2023-03-01T06:20:04;-3.70;99.90
7842;DHT22;3966;51.052;13.820;2023-03-01T06:22:30;-3.80;99.90
7842;DHT22;3966;51.052;13.820;2023-03-01T06:24:56;-3.80;99.90
7842;DHT22;3966;51.052;13.820;2023-03-01T06:27:21;-3.80;99.90
7842;DHT22;3966;51.052;13.820;2023-03-01T06:29:47;-3.80;99.90
7842;DHT22;3966;51.052;13.820;2023-03-01T06:32:14;-3.80;99.90
7842;DHT22;3966;51.052;13.820;2023-03-01T06:34:40;-3.80;99.90
7842;DHT22;3966;51.052;13.820;2023-03-01T06:37:06;-3.70;99.90
7842;DHT22;3966;51.052;13.820;2023-03-01T06:39:32;-3.60;99.90
7842;DHT22;3966;51.052;13.820;2023-03-01T06:41:58;-3.60;99.90
7842;DHT22;3966;51.052;13.820;2023-03-01T06:44:24;-3.60;99.90
7842;DHT22;3966;51.052;13.820;2023-03-01T06:46:50;-3.50;99.90
7842;DHT22;3966;51.052;13.820;2023-03-01T06:49:16;-3.60;99.90
7842;DHT22;3966;51.052;13.820;2023-03-01T06:51:43;-3.50;99.90
7842;DHT22;3966;51.052;13.820;2023-03-01T06:54:09;-3.50;99.90
7842;DHT22;3966;51.052;13.820;2023-03-01T06:56:35;-3.50;99.90
7842;DHT22;3966;51.052;13.820;2023-03-01T06:59:01;-3.40;99.90
7842;DHT22;3966;51.052;13.820;2023-03-01T07:01:28;-3.40;99.90
7842;DHT22;3966;51.052;13.820;2023-03-01T07:03:54;-3.40;99.90
7842;DHT22;3966;51.052;13.820;2023-03-01T07:06:20;-3.40;99.90
7842;DHT22;3966;51.052;13.820;2023-03-01T07:08:46;-3.30;99.90
7842;DHT22;3966;51.052;13.820;2023-03-01T07:11:12;-3.20;99.90
7842;DHT22;3966;51.052;13.820;2023-03-01T07:13:38;-3.20;99.90
7842;DHT22;3966;51.052;13.820;2023-03-01T07:16:04;-3.20;99.90
7842;DHT22;3966;51.052;13.820;2023-03-01T07:18:29;-3.10;99.90
7842;DHT22;3966;51.052;13.820;2023-03-01T07:20:55;-3.10;99.90
7842;DHT22;3966;51.052;13.820;2023-03-01T07:23:21;-3.10;99.90
7842;DHT22;3966;51.052;13.820;2023-03-01T07:25:53;-3.00;99.90
7842;DHT22;3966;51.052;13.820;2023-03-01T07:28:19;-2.90;99.90
7842;DHT22;3966;51.052;13.820;2023-03-01T07:30:45;-3.00;99.90
7842;DHT22;3966;51.052;13.820;2023-03-01T07:33:11;-2.90;99.90
7842;DHT22;3966;51.052;13.820;2023-03-01T07:35:36;-2.90;99.90
7842;DHT22;3966;51.052;13.820;2023-03-01T07:38:02;-2.80;99.90
7842;DHT22;3966;51.052;13.820;2023-03-01T07:40:28;-2.70;99.90
7842;DHT22;3966;51.052;13.820;2023-03-01T07:42:57;-2.60;99.90
7842;DHT22;3966;51.052;13.820;2023-03-01T07:45:23;-2.40;99.90
7842;DHT22;3966;51.052;13.820;2023-03-01T07:47:51;-2.30;99.90
7842;DHT22;3966;51.052;13.820;2023-03-01T07:50:17;-2.30;99.90
7842;DHT22;3966;51.052;13.820;2023-03-01T07:52:45;-2.20;99.90
7842;DHT22;3966;51.052;13.820;2023-03-01T07:55:11;-2.20;99.90
7842;DHT22;3966;51.052;13.820;2023-03-01T07:57:37;-2.00;99.90
7842;DHT22;3966;51.052;13.820;2023-03-01T08:00:03;-2.00;99.90
7842;DHT22;3966;51.052;13.820;2023-03-01T08:02:29;-2.10;99.90
7842;DHT22;3966;51.052;13.820;2023-03-01T08:04:55;-2.00;99.90
7842;DHT22;3966;51.052;13.820;2023-03-01T08:07:20;-2.10;99.90
7842;DHT22;3966;51.052;13.820;2023-03-01T08:09:46;-1.90;99.90
7842;DHT22;3966;51.052;13.820;2023-03-01T08:12:12;-1.80;99.90
7842;DHT22;3966;51.052;13.820;2023-03-01T08:14:37;-1.60;99.90
7842;DHT22;3966;51.052;13.820;2023-03-01T08:17:03;-1.60;99.90
7842;DHT22;3966;51.052;13.820;2023-03-01T08:19:29;-1.50;99.90
7842;DHT22;3966;51.052;13.820;2023-03-01T08:21:55;-1.60;99.90
7842;DHT22;3966;51.052;13.820;2023-03-01T08:24:23;-1.50;99.90
7842;DHT22;3966;51.052;13.820;2023-03-01T08:26:49;-1.60;99.90
7842;DHT22;3966;51.052;13.820;2023-03-01T08:29:15;-1.50;99.90
7842;DHT22;3966;51.052;13.820;2023-03-01T08:31:41;-1.40;99.90
7842;DHT22;3966;51.052;13.820;2023-03-01T08:34:09;-1.20;99.90
7842;DHT22;3966;51.052;13.820;2023-03-01T08:36:40;-1.20;99.90
7842;DHT22;3966;51.052;13.820;2023-03-01T08:39:07;-1.10;99.90
7842;DHT22;3966;51.052;13.820;2023-03-01T08:41:33;-1.00;99.90
7842;DHT22;3966;51.052;13.820;2023-03-01T08:43:59;-0.90;99.90
7842;DHT22;3966;51.052;13.820;2023-03-01T08:46:28;-0.90;99.90
7842;DHT22;3966;51.052;13.820;2023-03-01T08:48:55;-0.90;99.90
7842;DHT22;3966;51.052;13.820;2023-03-01T08:51:21;-0.90;99.90
7842;DHT22;3966;51.052;13.820;2023-03-01T08:53:47;-0.80;99.90
7842;DHT22;3966;51.052;13.820;2023-03-01T08:56:13;-0.70;99.90
7842;DHT22;3966;51.052;13.820;2023-03-01T08:58:39;-0.60;99.90
7842;DHT22;3966;51.052;13.820;2023-03-01T09:01:09;-0.50;99.90
7842;DHT22;3966;51.052;13.820;2023-03-01T09:03:35;-0.50;99.90
7842;DHT22;3966;51.052;13.820;2023-03-01T09:06:02;-0.40;99.90
7842;DHT22;3966;51.052;13.820;2023-03-01T09:08:28;-0.30;99.90
7842;DHT22;3966;51.052;13.820;2023-03-01T09:10:54;-0.30;99.90
7842;DHT22;3966;51.052;13.820;2023-03-01T09:13:19;-0.30;99.90
7842;DHT22;3966;51.052;13.820;2023-03-01T09:15:45;-0.20;99.90
7842;DHT22;3966;51.052;13.820;2023-03-01T09:18:11;-0.20;99.90
7842;DHT22;3966;51.052;13.820;2023-03-01T09:20:36;-0.30;99.90
7842;DHT22;3966;51.052;13.820;2023-03-01T09:23:02;-0.10;99.90
7842;DHT22;3966;51.052;13.820;2023-03-01T09:25:28;0.20;99.90
7842;DHT22;3966;51.052;13.820;2023-03-01T09:27:54;0.40;99.90
7842;DHT22;3966;51.052;13.820;2023-03-01T09:30:22;0.50;99.90
7842;DHT22;3966;51.052;13.820;2023-03-01T09:32:47;0.70;99.90
7842;DHT22;3966;51.052;13.820;2023-03-01T09:35:13;0.80;99.90
7842;DHT22;3966;51.052;13.820;2023-03-01T09:37:39;0.80;99.90
7842;DHT22;3966;51.052;13.820;2023-03-01T09:40:18;1.00;99.90
7842;DHT22;3966;51.052;13.820;2023-03-01T09:42:52;1.10;99.90
7842;DHT22;3966;51.052;13.820;2023-03-01T09:45:30;1.30;99.90
7842;DHT22;3966;51.052;13.820;2023-03-01T09:47:58;1.50;99.90
7842;DHT22;3966;51.052;13.820;2023-03-01T09:50:35;1.60;99.90
7842;DHT22;3966;51.052;13.820;2023-03-01T09:55:41;2.00;99.90
7842;DHT22;3966;51.052;13.820;2023-03-01T09:58:47;2.00;99.90
7842;DHT22;3966;51.052;13.820;2023-03-01T10:01:35;1.70;99.90
7842;DHT22;3966;51.052;13.820;2023-03-01T10:09:38;2.70;99.90
7842;DHT22;3966;51.052;13.820;2023-03-01T10:12:27;3.10;99.90
7842;DHT22;3966;51.052;13.820;2023-03-01T10:15:13;3.40;99.90
7842;DHT22;3966;51.052;13.820;2023-03-01T10:17:44;3.80;99.90
7842;DHT22;3966;51.052;13.820;2023-03-01T10:23:10;3.90;99.90
7842;DHT22;3966;51.052;13.820;2023-03-01T10:30:40;4.70;99.90
7842;DHT22;3966;51.052;13.820;2023-03-01T10:33:22;4.70;99.90
7842;DHT22;3966;51.052;13.820;2023-03-01T10:35:48;4.80;99.90
7842;DHT22;3966;51.052;13.820;2023-03-01T10:38:15;5.00;99.90
7842;DHT22;3966;51.052;13.820;2023-03-01T10:43:19;5.20;99.90
7842;DHT22;3966;51.052;13.820;2023-03-01T10:45:45;5.50;99.90
7842;DHT22;3966;51.052;13.820;2023-03-01T10:48:19;5.20;99.90
7842;DHT22;3966;51.052;13.820;2023-03-01T10:56:01;4.70;99.90
7842;DHT22;3966;51.052;13.820;2023-03-01T10:58:28;5.30;99.90
7842;DHT22;3966;51.052;13.820;2023-03-01T11:01:03;5.40;99.90
7842;DHT22;3966;51.052;13.820;2023-03-01T11:03:30;5.30;99.90
7842;DHT22;3966;51.052;13.820;2023-03-01T11:06:20;5.10;99.90
7842;DHT22;3966;51.052;13.820;2023-03-01T11:08:49;5.10;99.90
7842;DHT22;3966;51.052;13.820;2023-03-01T11:11:35;5.30;99.90
7842;DHT22;3966;51.052;13.820;2023-03-01T11:14:18;5.70;99.90
7842;DHT22;3966;51.052;13.820;2023-03-01T11:16:47;5.60;99.90
7842;DHT22;3966;51.052;13.820;2023-03-01T11:19:17;5.40;99.90
7842;DHT22;3966;51.052;13.820;2023-03-01T11:27:36;5.30;99.90
7842;DHT22;3966;51.052;13.820;2023-03-01T11:32:50;6.00;99.90
7842;DHT22;3966;51.052;13.820;2023-03-01T11:35:25;6.40;99.90
7842;DHT22;3966;51.052;13.820;2023-03-01T11:40:41;6.40;99.90
7842;DHT22;3966;51.052;13.820;2023-03-01T11:43:28;6.50;99.90
7842;DHT22;3966;51.052;13.820;2023-03-01T11:51:19;7.10;99.90
7842;DHT22;3966;51.052;13.820;2023-03-01T11:54:18;7.30;99.90
7842;DHT22;3966;51.052;13.820;2023-03-01T12:05:02;7.70;99.40
7842;DHT22;3966;51.052;13.820;2023-03-01T12:16:53;8.30;99.50
7842;DHT22;3966;51.052;13.820;2023-03-01T12:30:30;8.80;98.00
7842;DHT22;3966;51.052;13.820;2023-03-01T12:38:33;8.10;99.90
7842;DHT22;3966;51.052;13.820;2023-03-01T12:44:15;7.60;99.90
7842;DHT22;3966;51.052;13.820;2023-03-01T12:47:05;8.40;99.90
7842;DHT22;3966;51.052;13.820;2023-03-01T12:49:36;8.10;99.90
7842;DHT22;3966;51.052;13.820;2023-03-01T12:54:37;7.30;99.90
7842;DHT22;3966;51.052;13.820;2023-03-01T12:57:14;7.40;99.90
7842;DHT22;3966;51.052;13.820;2023-03-01T13:02:24;8.80;99.90
7842;DHT22;3966;51.052;13.820;2023-03-01T13:07:43;9.60;95.00
7842;DHT22;3966;51.052;13.820;2023-03-01T13:17:48;9.40;93.50
7842;DHT22;3966;51.052;13.820;2023-03-01T13:20:16;9.00;90.60
7842;DHT22;3966;51.052;13.820;2023-03-01T13:22:42;8.00;94.90
7842;DHT22;3966;51.052;13.820;2023-03-01T13:25:19;8.10;97.00
7842;DHT22;3966;51.052;13.820;2023-03-01T13:27:46;8.60;99.20
7842;DHT22;3966;51.052;13.820;2023-03-01T13:35:49;10.00;93.20
7842;DHT22;3966;51.052;13.820;2023-03-01T13:38:46;10.30;90.00
7842;DHT22;3966;51.052;13.820;2023-03-01T13:41:27;10.30;88.30
7842;DHT22;3966;51.052;13.820;2023-03-01T13:46:55;9.60;91.60
7842;DHT22;3966;51.052;13.820;2023-03-01T13:49:25;9.90;91.50
7842;DHT22;3966;51.052;13.820;2023-03-01T13:51:52;9.90;91.10
7842;DHT22;3966;51.052;13.820;2023-03-01T13:54:30;10.00;86.50
7842;DHT22;3966;51.052;13.820;2023-03-01T13:56:58;9.90;87.70
7842;DHT22;3966;51.052;13.820;2023-03-01T13:59:25;9.60;86.60
7842;DHT22;3966;51.052;13.820;2023-03-01T14:01:54;9.80;86.70
7842;DHT22;3966;51.052;13.820;2023-03-01T14:04:22;10.70;86.90
7842;DHT22;3966;51.052;13.820;2023-03-01T14:06:49;10.80;77.80
7842;DHT22;3966;51.052;13.820;2023-03-01T14:09:24;10.90;81.90
7842;DHT22;3966;51.052;13.820;2023-03-01T14:17:06;10.70;80.20
7842;DHT22;3966;51.052;13.820;2023-03-01T14:19:34;11.80;78.80
7842;DHT22;3966;51.052;13.820;2023-03-01T14:25:00;12.00;68.70
7842;DHT22;3966;51.052;13.820;2023-03-01T14:27:34;11.20;71.60
7842;DHT22;3966;51.052;13.820;2023-03-01T14:30:09;9.50;74.90
7842;DHT22;3966;51.052;13.820;2023-03-01T14:32:35;9.30;78.20
7842;DHT22;3966;51.052;13.820;2023-03-01T14:35:01;9.80;80.10
7842;DHT22;3966;51.052;13.820;2023-03-01T14:37:34;10.70;77.80
7842;DHT22;3966;51.052;13.820;2023-03-01T14:40:02;10.10;79.40
7842;DHT22;3966;51.052;13.820;2023-03-01T14:42:33;11.00;79.30
7842;DHT22;3966;51.052;13.820;2023-03-01T14:45:00;11.50;74.00
7842;DHT22;3966;51.052;13.820;2023-03-01T14:47:29;11.20;76.30
7842;DHT22;3966;51.052;13.820;2023-03-01T14:50:09;11.20;76.00
7842;DHT22;3966;51.052;13.820;2023-03-01T14:52:42;11.20;76.50
7842;DHT22;3966;51.052;13.820;2023-03-01T14:55:22;10.40;76.00
7842;DHT22;3966;51.052;13.820;2023-03-01T14:57:52;10.80;77.10
7842;DHT22;3966;51.052;13.820;2023-03-01T15:00:29;11.60;75.70
7842;DHT22;3966;51.052;13.820;2023-03-01T15:02:58;12.10;73.10
7842;DHT22;3966;51.052;13.820;2023-03-01T15:05:29;11.90;72.10
7842;DHT22;3966;51.052;13.820;2023-03-01T15:07:57;11.80;72.90
7842;DHT22;3966;51.052;13.820;2023-03-01T15:10:30;11.80;74.20
7842;DHT22;3966;51.052;13.820;2023-03-01T15:13:09;12.20;72.60
7842;DHT22;3966;51.052;13.820;2023-03-01T15:15:43;12.10;71.20
7842;DHT22;3966;51.052;13.820;2023-03-01T15:18:22;11.80;71.30
7842;DHT22;3966;51.052;13.820;2023-03-01T15:20:51;11.40;74.70
7842;DHT22;3966;51.052;13.820;2023-03-01T15:23:28;12.00;72.80
7842;DHT22;3966;51.052;13.820;2023-03-01T15:25:56;11.50;71.80
7842;DHT22;3966;51.052;13.820;2023-03-01T15:28:28;11.80;73.80
7842;DHT22;3966;51.052;13.820;2023-03-01T15:33:51;12.60;69.30
7842;DHT22;3966;51.052;13.820;2023-03-01T15:38:58;11.50;72.10
7842;DHT22;3966;51.052;13.820;2023-03-01T15:41:37;11.20;73.50
7842;DHT22;3966;51.052;13.820;2023-03-01T15:44:26;11.50;72.70
7842;DHT22;3966;51.052;13.820;2023-03-01T15:46:52;11.20;74.40
7842;DHT22;3966;51.052;13.820;2023-03-01T15:49:42;11.70;71.60
7842;DHT22;3966;51.052;13.820;2023-03-01T15:52:34;12.00;71.90
7842;DHT22;3966;51.052;13.820;2023-03-01T15:55:26;11.60;72.60
7842;DHT22;3966;51.052;13.820;2023-03-01T15:58:03;11.70;73.30
7842;DHT22;3966;51.052;13.820;2023-03-01T16:00:29;11.40;72.70
7842;DHT22;3966;51.052;13.820;2023-03-01T16:02:56;11.40;72.70
7842;DHT22;3966;51.052;13.820;2023-03-01T16:05:24;10.80;74.20
7842;DHT22;3966;51.052;13.820;2023-03-01T16:07:51;10.60;74.30
7842;DHT22;3966;51.052;13.820;2023-03-01T16:10:17;10.80;75.30
7842;DHT22;3966;51.052;13.820;2023-03-01T16:12:43;10.60;75.70
7842;DHT22;3966;51.052;13.820;2023-03-01T16:15:19;9.70;78.40
7842;DHT22;3966;51.052;13.820;2023-03-01T16:17:45;9.00;79.80
7842;DHT22;3966;51.052;13.820;2023-03-01T16:20:11;8.80;83.20
7842;DHT22;3966;51.052;13.820;2023-03-01T16:22:37;8.60;84.10
7842;DHT22;3966;51.052;13.820;2023-03-01T16:25:03;8.40;85.60
7842;DHT22;3966;51.052;13.820;2023-03-01T16:27:29;8.30;90.00
7842;DHT22;3966;51.052;13.820;2023-03-01T16:29:54;8.20;94.30
7842;DHT22;3966;51.052;13.820;2023-03-01T16:32:20;8.00;97.00
7842;DHT22;3966;51.052;13.820;2023-03-01T16:34:45;7.90;99.40
7842;DHT22;3966;51.052;13.820;2023-03-01T16:37:14;7.90;99.90
7842;DHT22;3966;51.052;13.820;2023-03-01T16:39:40;7.60;99.90
7842;DHT22;3966;51.052;13.820;2023-03-01T16:42:06;7.50;99.90
7842;DHT22;3966;51.052;13.820;2023-03-01T16:44:32;7.20;99.90
7842;DHT22;3966;51.052;13.820;2023-03-01T16:46:57;7.10;99.90
7842;DHT22;3966;51.052;13.820;2023-03-01T16:49:23;7.00;99.90
7842;DHT22;3966;51.052;13.820;2023-03-01T16:51:49;6.80;99.90
7842;DHT22;3966;51.052;13.820;2023-03-01T16:54:14;6.50;99.90
7842;DHT22;3966;51.052;13.820;2023-03-01T16:56:40;6.40;99.90
7842;DHT22;3966;51.052;13.820;2023-03-01T16:59:06;6.20;99.90
7842;DHT22;3966;51.052;13.820;2023-03-01T17:01:32;6.00;99.90
7842;DHT22;3966;51.052;13.820;2023-03-01T17:04:04;6.00;99.90
7842;DHT22;3966;51.052;13.820;2023-03-01T17:06:30;5.90;99.90
7842;DHT22;3966;51.052;13.820;2023-03-01T17:08:57;5.80;99.90
7842;DHT22;3966;51.052;13.820;2023-03-01T17:11:24;5.60;99.90
7842;DHT22;3966;51.052;13.820;2023-03-01T17:13:50;5.60;99.90
7842;DHT22;3966;51.052;13.820;2023-03-01T17:16:17;5.40;99.90
7842;DHT22;3966;51.052;13.820;2023-03-01T17:18:44;5.30;99.90
7842;DHT22;3966;51.052;13.820;2023-03-01T17:21:10;5.20;99.90
7842;DHT22;3966;51.052;13.820;2023-03-01T17:23:37;5.00;99.90
7842;DHT22;3966;51.052;13.820;2023-03-01T17:26:06;4.70;99.90
7842;DHT22;3966;51.052;13.820;2023-03-01T17:28:34;4.70;99.90
7842;DHT22;3966;51.052;13.820;2023-03-01T17:31:02;4.70;99.90
7842;DHT22;3966;51.052;13.820;2023-03-01T17:33:29;4.60;99.90
7842;DHT22;3966;51.052;13.820;2023-03-01T17:35:56;4.70;99.90
7842;DHT22;3966;51.052;13.820;2023-03-01T17:38:22;4.70;99.90
7842;DHT22;3966;51.052;13.820;2023-03-01T17:40:48;4.60;99.90
7842;DHT22;3966;51.052;13.820;2023-03-01T17:43:15;4.60;99.90
7842;DHT22;3966;51.052;13.820;2023-03-01T17:45:41;4.50;99.90
7842;DHT22;3966;51.052;13.820;2023-03-01T17:48:09;4.60;99.90
7842;DHT22;3966;51.052;13.820;2023-03-01T17:50:36;4.60;99.90
7842;DHT22;3966;51.052;13.820;2023-03-01T17:53:03;4.60;99.90
7842;DHT22;3966;51.052;13.820;2023-03-01T17:55:37;4.60;99.90
7842;DHT22;3966;51.052;13.820;2023-03-01T17:58:04;4.60;99.90
7842;DHT22;3966;51.052;13.820;2023-03-01T18:00:30;4.60;99.90
7842;DHT22;3966;51.052;13.820;2023-03-01T18:02:56;4.50;99.90
7842;DHT22;3966;51.052;13.820;2023-03-01T18:05:22;4.40;99.90
7842;DHT22;3966;51.052;13.820;2023-03-01T18:07:49;4.30;99.90
7842;DHT22;3966;51.052;13.820;2023-03-01T18:10:16;4.30;99.90
7842;DHT22;3966;51.052;13.820;2023-03-01T18:12:41;4.30;99.90
7842;DHT22;3966;51.052;13.820;2023-03-01T18:15:07;4.20;99.90
7842;DHT22;3966;51.052;13.820;2023-03-01T18:17:33;4.00;99.90